sensor_id;sensor_type;location;lat;lon;timestamp;P1;durP1;ratioP1;P2;durP2;ratioP2
72501;SDS011;60524;49.874;8.652;2022-10-23T08:51:49;5.55;;;2.25;;
72501;SDS011;60524;49.874;8.652;2022-10-23T08:54:21;5.55;;;2.38;;
72501;SDS011;60524;49.874;8.652;2022-10-23T08:57:00;5.28;;;1.80;;
72501;SDS011;60524;49.874;8.652;2022-10-23T08:59:39;5.68;;;1.77;;
72501;SDS011;60524;49.874;8.652;2022-10-23T09:02:12;3.47;;;1.60;;
72501;SDS011;60524;49.874;8.652;2022-10-23T09:04:40;4.65;;;1.40;;
72501;SDS011;60524;49.874;8.652;2022-10-23T09:07:20;3.15;;;1.38;;
72501;SDS011;60524;49.874;8.652;2022-10-23T09:10:15;6.53;;;1.75;;
72501;SDS011;60524;49.874;8.652;2022-10-23T09:13:15;5.47;;;1.58;;
72501;SDS011;60524;49.874;8.652;2022-10-23T09:18:44;4.82;;;1.75;;
72501;SDS011;60524;49.874;8.652;2022-10-23T09:21:11;7.70;;;1.58;;
72501;SDS011;60524;49.874;8.652;2022-10-23T09:23:36;4.30;;;1.15;;
72501;SDS011;60524;49.874;8.652;2022-10-23T09:26:05;2.58;;;1.13;;
72501;SDS011;60524;49.874;8.652;2022-10-23T09:28:35;3.78;;;1.25;;
72501;SDS011;60524;49.874;8.652;2022-10-23T09:31:19;2.40;;;1.20;;
72501;SDS011;60524;49.874;8.652;2022-10-23T09:33:54;4.57;;;1.70;;
72501;SDS011;60524;49.874;8.652;2022-10-23T09:36:24;5.40;;;2.28;;
72501;SDS011;60524;49.874;8.652;2022-10-23T09:41:22;14.10;;;1.88;;
72501;SDS011;60524;49.874;8.652;2022-10-23T09:44:50;7.72;;;2.10;;
72501;SDS011;60524;49.874;8.652;2022-10-23T09:46:48;8.02;;;2.22;;
72501;SDS011;60524;49.874;8.652;2022-10-23T09:54:17;3.47;;;1.60;;
72501;SDS011;60524;49.874;8.652;2022-10-23T09:56:46;4.00;;;1.73;;
72501;SDS011;60524;49.874;8.652;2022-10-23T10:01:45;4.13;;;1.80;;
72501;SDS011;60524;49.874;8.652;2022-10-23T10:04:33;5.90;;;2.05;;
72501;SDS011;60524;49.874;8.652;2022-10-23T10:07:15;7.45;;;1.80;;
72501;SDS011;60524;49.874;8.652;2022-10-23T10:09:49;6.65;;;2.00;;
72501;SDS011;60524;49.874;8.652;2022-10-23T10:12:32;8.13;;;2.20;;
72501;SDS011;60524;49.874;8.652;2022-10-23T10:15:03;7.55;;;2.72;;
72501;SDS011;60524;49.874;8.652;2022-10-23T10:23:09;8.77;;;2.20;;
72501;SDS011;60524;49.874;8.652;2022-10-23T10:25:57;7.65;;;1.83;;
72501;SDS011;60524;49.874;8.652;2022-10-23T10:29:34;6.15;;;2.33;;
72501;SDS011;60524;49.874;8.652;2022-10-23T10:34:00;8.90;;;2.10;;
72501;SDS011;60524;49.874;8.652;2022-10-23T10:39:35;6.50;;;1.92;;
72501;SDS011;60524;49.874;8.652;2022-10-23T10:42:07;10.45;;;2.53;;
72501;SDS011;60524;49.874;8.652;2022-10-23T10:44:47;11.52;;;2.20;;
72501;SDS011;60524;49.874;8.652;2022-10-23T10:47:21;5.68;;;2.25;;
72501;SDS011;60524;49.874;8.652;2022-10-23T10:55:41;6.93;;;2.08;;
72501;SDS011;60524;49.874;8.652;2022-10-23T10:58:15;12.60;;;1.95;;
72501;SDS011;60524;49.874;8.652;2022-10-23T11:00:45;7.70;;;1.67;;
72501;SDS011;60524;49.874;8.652;2022-10-23T11:05:58;2.88;;;1.30;;
72501;SDS011;60524;49.874;8.652;2022-10-23T11:08:29;9.57;;;1.70;;
72501;SDS011;60524;49.874;8.652;2022-10-23T11:13:50;4.38;;;1.58;;
72501;SDS011;60524;49.874;8.652;2022-10-23T11:16:24;2.97;;;1.10;;
72501;SDS011;60524;49.874;8.652;2022-10-23T11:19:03;5.82;;;1.90;;
72501;SDS011;60524;49.874;8.652;2022-10-23T11:21:36;4.25;;;1.33;;
72501;SDS011;60524;49.874;8.652;2022-10-23T11:24:09;2.35;;;1.25;;
72501;SDS011;60524;49.874;8.652;2022-10-23T11:26:40;4.55;;;1.75;;
72501;SDS011;60524;49.874;8.652;2022-10-23T11:35:25;3.08;;;1.15;;
72501;SDS011;60524;49.874;8.652;2022-10-23T11:38:23;6.85;;;1.30;;
72501;SDS011;60524;49.874;8.652;2022-10-23T11:40:54;5.93;;;1.27;;
72501;SDS011;60524;49.874;8.652;2022-10-23T11:43:31;4.90;;;1.23;;
72501;SDS011;60524;49.874;8.652;2022-10-23T11:46:45;2.42;;;1.13;;
72501;SDS011;60524;49.874;8.652;2022-10-23T11:48:51;3.45;;;1.00;;
72501;SDS011;60524;49.874;8.652;2022-10-23T11:56:54;3.00;;;0.75;;
72501;SDS011;60524;49.874;8.652;2022-10-23T11:59:27;2.50;;;1.00;;
72501;SDS011;60524;49.874;8.652;2022-10-23T12:01:55;4.35;;;1.15;;
72501;SDS011;60524;49.874;8.652;2022-10-23T12:04:27;2.45;;;1.15;;
72501;SDS011;60524;49.874;8.652;2022-10-23T12:14:35;3.87;;;1.30;;
72501;SDS011;60524;49.874;8.652;2022-10-23T12:17:02;4.03;;;1.58;;
72501;SDS011;60524;49.874;8.652;2022-10-23T12:19:48;8.38;;;1.45;;
72501;SDS011;60524;49.874;8.652;2022-10-23T12:22:36;5.65;;;1.17;;
72501;SDS011;60524;49.874;8.652;2022-10-23T12:25:14;2.53;;;0.90;;
72501;SDS011;60524;49.874;8.652;2022-10-23T12:30:13;6.75;;;1.35;;
72501;SDS011;60524;49.874;8.652;2022-10-23T12:35:27;5.45;;;1.15;;
72501;SDS011;60524;49.874;8.652;2022-10-23T12:40:49;7.20;;;1.67;;
72501;SDS011;60524;49.874;8.652;2022-10-23T12:45:51;4.97;;;1.15;;
72501;SDS011;60524;49.874;8.652;2022-10-23T12:48:19;4.00;;;1.00;;
72501;SDS011;60524;49.874;8.652;2022-10-23T12:50:49;2.75;;;1.00;;
72501;SDS011;60524;49.874;8.652;2022-10-23T12:53:17;4.32;;;1.00;;
72501;SDS011;60524;49.874;8.652;2022-10-23T12:58:23;4.70;;;1.00;;
72501;SDS011;60524;49.874;8.652;2022-10-23T13:00:52;1.85;;;0.90;;
72501;SDS011;60524;49.874;8.652;2022-10-23T13:03:20;6.35;;;1.13;;
72501;SDS011;60524;49.874;8.652;2022-10-23T13:08:13;3.15;;;1.33;;
72501;SDS011;60524;49.874;8.652;2022-10-23T13:10:38;4.90;;;1.03;;
72501;SDS011;60524;49.874;8.652;2022-10-23T13:13:04;3.35;;;1.27;;
72501;SDS011;60524;49.874;8.652;2022-10-23T13:15:38;5.38;;;1.17;;
72501;SDS011;60524;49.874;8.652;2022-10-23T13:18:05;4.55;;;1.10;;
72501;SDS011;60524;49.874;8.652;2022-10-23T13:20:32;5.38;;;0.90;;
72501;SDS011;60524;49.874;8.652;2022-10-23T13:26:00;4.00;;;0.90;;
72501;SDS011;60524;49.874;8.652;2022-10-23T13:28:27;3.08;;;1.00;;
72501;SDS011;60524;49.874;8.652;2022-10-23T13:30:57;3.03;;;1.10;;
72501;SDS011;60524;49.874;8.652;2022-10-23T13:33:25;3.15;;;1.00;;
72501;SDS011;60524;49.874;8.652;2022-10-23T13:35:59;4.63;;;1.00;;
72501;SDS011;60524;49.874;8.652;2022-10-23T13:38:33;2.20;;;0.77;;
72501;SDS011;60524;49.874;8.652;2022-10-23T13:41:01;2.53;;;0.90;;
72501;SDS011;60524;49.874;8.652;2022-10-23T13:43:27;3.55;;;1.13;;
72501;SDS011;60524;49.874;8.652;2022-10-23T13:45:54;1.88;;;1.05;;
72501;SDS011;60524;49.874;8.652;2022-10-23T13:48:21;5.15;;;1.40;;
72501;SDS011;60524;49.874;8.652;2022-10-23T13:50:46;4.47;;;0.90;;
72501;SDS011;60524;49.874;8.652;2022-10-23T13:53:12;4.03;;;0.90;;
72501;SDS011;60524;49.874;8.652;2022-10-23T13:55:44;3.60;;;0.98;;
72501;SDS011;60524;49.874;8.652;2022-10-23T13:58:11;7.30;;;1.55;;
72501;SDS011;60524;49.874;8.652;2022-10-23T14:00:40;4.35;;;1.48;;
72501;SDS011;60524;49.874;8.652;2022-10-23T14:05:32;20.73;;;1.83;;
72501;SDS011;60524;49.874;8.652;2022-10-23T14:07:58;3.17;;;1.00;;
72501;SDS011;60524;49.874;8.652;2022-10-23T14:10:23;4.23;;;1.20;;
72501;SDS011;60524;49.874;8.652;2022-10-23T14:12:48;1.20;;;0.80;;
72501;SDS011;60524;49.874;8.652;2022-10-23T14:15:19;7.35;;;1.52;;
72501;SDS011;60524;49.874;8.652;2022-10-23T14:17:45;5.43;;;1.33;;
72501;SDS011;60524;49.874;8.652;2022-10-23T14:20:10;3.13;;;1.40;;
72501;SDS011;60524;49.874;8.652;2022-10-23T14:22:36;2.55;;;1.20;;
72501;SDS011;60524;49.874;8.652;2022-10-23T14:25:01;5.50;;;1.30;;
72501;SDS011;60524;49.874;8.652;2022-10-23T14:27:27;2.97;;;1.17;;
72501;SDS011;60524;49.874;8.652;2022-10-23T14:29:53;2.38;;;1.35;;
72501;SDS011;60524;49.874;8.652;2022-10-23T14:32:19;8.63;;;1.10;;
72501;SDS011;60524;49.874;8.652;2022-10-23T14:34:48;3.37;;;1.30;;
72501;SDS011;60524;49.874;8.652;2022-10-23T14:37:14;5.13;;;1.48;;
72501;SDS011;60524;49.874;8.652;2022-10-23T14:39:39;2.87;;;1.10;;
72501;SDS011;60524;49.874;8.652;2022-10-23T14:42:05;2.33;;;1.03;;
72501;SDS011;60524;49.874;8.652;2022-10-23T14:44:30;1.97;;;0.90;;
72501;SDS011;60524;49.874;8.652;2022-10-23T14:46:55;2.20;;;1.10;;
72501;SDS011;60524;49.874;8.652;2022-10-23T14:49:20;3.20;;;1.20;;
72501;SDS011;60524;49.874;8.652;2022-10-23T14:51:46;2.80;;;1.27;;
72501;SDS011;60524;49.874;8.652;2022-10-23T14:54:11;8.67;;;1.87;;
72501;SDS011;60524;49.874;8.652;2022-10-23T14:56:37;7.60;;;1.90;;
72501;SDS011;60524;49.874;8.652;2022-10-23T14:59:04;8.55;;;2.15;;
72501;SDS011;60524;49.874;8.652;2022-10-23T15:01:34;10.82;;;3.92;;
72501;SDS011;60524;49.874;8.652;2022-10-23T15:04:04;6.07;;;2.35;;
72501;SDS011;60524;49.874;8.652;2022-10-23T15:06:29;10.07;;;3.22;;
72501;SDS011;60524;49.874;8.652;2022-10-23T15:08:55;9.85;;;3.00;;
72501;SDS011;60524;49.874;8.652;2022-10-23T15:11:21;3.97;;;1.65;;
72501;SDS011;60524;49.874;8.652;2022-10-23T15:13:47;9.10;;;2.65;;
72501;SDS011;60524;49.874;8.652;2022-10-23T15:16:12;5.23;;;1.70;;
72501;SDS011;60524;49.874;8.652;2022-10-23T15:18:40;7.13;;;1.52;;
72501;SDS011;60524;49.874;8.652;2022-10-23T15:21:09;5.88;;;1.95;;
72501;SDS011;60524;49.874;8.652;2022-10-23T15:23:35;5.32;;;1.80;;
72501;SDS011;60524;49.874;8.652;2022-10-23T15:26:02;5.50;;;1.60;;
72501;SDS011;60524;49.874;8.652;2022-10-23T15:28:29;8.40;;;1.83;;
72501;SDS011;60524;49.874;8.652;2022-10-23T15:30:55;6.38;;;1.50;;
72501;SDS011;60524;49.874;8.652;2022-10-23T15:33:21;3.72;;;1.83;;
72501;SDS011;60524;49.874;8.652;2022-10-23T15:35:47;4.35;;;1.67;;
72501;SDS011;60524;49.874;8.652;2022-10-23T15:38:13;10.50;;;2.15;;
72501;SDS011;60524;49.874;8.652;2022-10-23T15:40:39;6.70;;;1.90;;
72501;SDS011;60524;49.874;8.652;2022-10-23T15:43:04;5.68;;;2.03;;
72501;SDS011;60524;49.874;8.652;2022-10-23T15:45:30;5.28;;;2.22;;
72501;SDS011;60524;49.874;8.652;2022-10-23T15:47:55;4.70;;;2.53;;
72501;SDS011;60524;49.874;8.652;2022-10-23T15:50:21;9.55;;;2.20;;
72501;SDS011;60524;49.874;8.652;2022-10-23T15:52:46;6.55;;;1.90;;
72501;SDS011;60524;49.874;8.652;2022-10-23T15:55:11;5.97;;;2.13;;
72501;SDS011;60524;49.874;8.652;2022-10-23T15:57:37;6.87;;;2.87;;
72501;SDS011;60524;49.874;8.652;2022-10-23T16:00:04;9.98;;;2.63;;
72501;SDS011;60524;49.874;8.652;2022-10-23T16:02:30;15.10;;;5.18;;
72501;SDS011;60524;49.874;8.652;2022-10-23T16:04:55;63.00;;;24.67;;
72501;SDS011;60524;49.874;8.652;2022-10-23T16:07:20;23.53;;;9.53;;
72501;SDS011;60524;49.874;8.652;2022-10-23T16:09:46;19.97;;;8.87;;
72501;SDS011;60524;49.874;8.652;2022-10-23T16:12:11;32.43;;;14.73;;
72501;SDS011;60524;49.874;8.652;2022-10-23T16:14:37;7.50;;;2.50;;
72501;SDS011;60524;49.874;8.652;2022-10-23T16:17:02;8.65;;;2.60;;
72501;SDS011;60524;49.874;8.652;2022-10-23T16:19:28;7.33;;;2.40;;
72501;SDS011;60524;49.874;8.652;2022-10-23T16:21:53;6.63;;;2.30;;
72501;SDS011;60524;49.874;8.652;2022-10-23T16:24:18;5.63;;;2.70;;
72501;SDS011;60524;49.874;8.652;2022-10-23T16:26:44;8.15;;;2.70;;
72501;SDS011;60524;49.874;8.652;2022-10-23T16:29:14;10.52;;;2.53;;
72501;SDS011;60524;49.874;8.652;2022-10-23T16:31:39;6.10;;;2.45;;
72501;SDS011;60524;49.874;8.652;2022-10-23T16:34:05;8.00;;;2.20;;
72501;SDS011;60524;49.874;8.652;2022-10-23T16:36:30;6.85;;;2.78;;
72501;SDS011;60524;49.874;8.652;2022-10-23T16:38:56;13.98;;;2.75;;
72501;SDS011;60524;49.874;8.652;2022-10-23T16:41:22;7.88;;;2.97;;
72501;SDS011;60524;49.874;8.652;2022-10-23T16:43:47;7.97;;;2.77;;
72501;SDS011;60524;49.874;8.652;2022-10-23T16:46:13;8.10;;;2.83;;
72501;SDS011;60524;49.874;8.652;2022-10-23T16:51:06;8.45;;;2.20;;
72501;SDS011;60524;49.874;8.652;2022-10-23T16:53:33;10.05;;;1.70;;
72501;SDS011;60524;49.874;8.652;2022-10-23T16:55:58;5.35;;;2.15;;
72501;SDS011;60524;49.874;8.652;2022-10-23T16:58:24;7.50;;;1.90;;
72501;SDS011;60524;49.874;8.652;2022-10-23T17:03:22;9.65;;;2.70;;
72501;SDS011;60524;49.874;8.652;2022-10-23T17:05:47;7.72;;;2.80;;
72501;SDS011;60524;49.874;8.652;2022-10-23T17:08:13;7.03;;;2.45;;
72501;SDS011;60524;49.874;8.652;2022-10-23T17:10:38;8.57;;;2.50;;
72501;SDS011;60524;49.874;8.652;2022-10-23T17:13:03;8.53;;;2.60;;
72501;SDS011;60524;49.874;8.652;2022-10-23T17:15:29;6.10;;;2.30;;
72501;SDS011;60524;49.874;8.652;2022-10-23T17:17:54;7.07;;;1.90;;
72501;SDS011;60524;49.874;8.652;2022-10-23T17:20:19;9.57;;;2.80;;
72501;SDS011;60524;49.874;8.652;2022-10-23T17:22:45;8.27;;;2.38;;
72501;SDS011;60524;49.874;8.652;2022-10-23T17:25:10;5.45;;;2.60;;
72501;SDS011;60524;49.874;8.652;2022-10-23T17:27:36;7.65;;;2.83;;
72501;SDS011;60524;49.874;8.652;2022-10-23T17:30:01;13.60;;;3.50;;
72501;SDS011;60524;49.874;8.652;2022-10-23T17:32:34;11.60;;;3.58;;
72501;SDS011;60524;49.874;8.652;2022-10-23T17:35:02;20.77;;;4.55;;
72501;SDS011;60524;49.874;8.652;2022-10-23T17:37:29;7.10;;;3.17;;
72501;SDS011;60524;49.874;8.652;2022-10-23T17:39:54;8.97;;;3.40;;
72501;SDS011;60524;49.874;8.652;2022-10-23T17:42:19;7.57;;;3.63;;
72501;SDS011;60524;49.874;8.652;2022-10-23T17:44:45;12.40;;;3.90;;
72501;SDS011;60524;49.874;8.652;2022-10-23T17:47:10;14.97;;;4.50;;
72501;SDS011;60524;49.874;8.652;2022-10-23T17:49:35;16.70;;;3.93;;
72501;SDS011;60524;49.874;8.652;2022-10-23T17:52:01;9.73;;;4.27;;
72501;SDS011;60524;49.874;8.652;2022-10-23T17:54:26;34.55;;;4.85;;
72501;SDS011;60524;49.874;8.652;2022-10-23T17:56:51;18.42;;;3.70;;
72501;SDS011;60524;49.874;8.652;2022-10-23T17:59:17;6.80;;;4.10;;
72501;SDS011;60524;49.874;8.652;2022-10-23T18:01:43;7.07;;;3.22;;
72501;SDS011;60524;49.874;8.652;2022-10-23T18:04:10;12.80;;;3.28;;
72501;SDS011;60524;49.874;8.652;2022-10-23T18:06:39;7.88;;;3.20;;
72501;SDS011;60524;49.874;8.652;2022-10-23T18:09:06;8.27;;;2.95;;
72501;SDS011;60524;49.874;8.652;2022-10-23T18:11:33;13.50;;;3.55;;
72501;SDS011;60524;49.874;8.652;2022-10-23T18:14:00;11.10;;;2.92;;
72501;SDS011;60524;49.874;8.652;2022-10-23T18:16:25;10.05;;;3.20;;
72501;SDS011;60524;49.874;8.652;2022-10-23T18:18:51;6.88;;;2.95;;
72501;SDS011;60524;49.874;8.652;2022-10-23T18:21:18;14.50;;;3.03;;
72501;SDS011;60524;49.874;8.652;2022-10-23T18:23:44;11.45;;;3.88;;
72501;SDS011;60524;49.874;8.652;2022-10-23T18:26:20;13.13;;;5.55;;
72501;SDS011;60524;49.874;8.652;2022-10-23T18:28:47;11.07;;;3.55;;
72501;SDS011;60524;49.874;8.652;2022-10-23T18:31:14;19.05;;;6.03;;
72501;SDS011;60524;49.874;8.652;2022-10-23T18:33:40;11.68;;;3.65;;
72501;SDS011;60524;49.874;8.652;2022-10-23T18:36:12;11.25;;;2.88;;
72501;SDS011;60524;49.874;8.652;2022-10-23T18:38:44;13.15;;;2.85;;
72501;SDS011;60524;49.874;8.652;2022-10-23T18:41:09;9.73;;;3.17;;
72501;SDS011;60524;49.874;8.652;2022-10-23T18:43:35;13.40;;;3.85;;
72501;SDS011;60524;49.874;8.652;2022-10-23T18:46:03;24.65;;;6.15;;
72501;SDS011;60524;49.874;8.652;2022-10-23T18:48:29;7.43;;;3.15;;
72501;SDS011;60524;49.874;8.652;2022-10-23T18:50:55;12.73;;;3.72;;
72501;SDS011;60524;49.874;8.652;2022-10-23T18:53:20;9.68;;;3.33;;
72501;SDS011;60524;49.874;8.652;2022-10-23T18:55:46;8.40;;;3.25;;
72501;SDS011;60524;49.874;8.652;2022-10-23T18:58:13;9.23;;;3.50;;
72501;SDS011;60524;49.874;8.652;2022-10-23T19:00:39;11.20;;;3.80;;
72501;SDS011;60524;49.874;8.652;2022-10-23T19:03:05;7.55;;;3.33;;
72501;SDS011;60524;49.874;8.652;2022-10-23T19:05:32;10.48;;;3.50;;
72501;SDS011;60524;49.874;8.652;2022-10-23T19:07:57;6.95;;;2.75;;
72501;SDS011;60524;49.874;8.652;2022-10-23T19:10:24;11.88;;;3.97;;
72501;SDS011;60524;49.874;8.652;2022-10-23T19:12:51;8.25;;;3.00;;
72501;SDS011;60524;49.874;8.652;2022-10-23T19:15:16;8.73;;;3.30;;
72501;SDS011;60524;49.874;8.652;2022-10-23T19:17:41;10.67;;;3.47;;
72501;SDS011;60524;49.874;8.652;2022-10-23T19:20:08;13.57;;;3.70;;
72501;SDS011;60524;49.874;8.652;2022-10-23T19:22:36;8.80;;;3.17;;
72501;SDS011;60524;49.874;8.652;2022-10-23T19:25:06;12.75;;;3.50;;
72501;SDS011;60524;49.874;8.652;2022-10-23T19:27:35;9.57;;;2.97;;
72501;SDS011;60524;49.874;8.652;2022-10-23T19:30:01;10.07;;;2.35;;
72501;SDS011;60524;49.874;8.652;2022-10-23T19:32:30;7.72;;;3.00;;
72501;SDS011;60524;49.874;8.652;2022-10-23T19:34:55;9.43;;;2.60;;
72501;SDS011;60524;49.874;8.652;2022-10-23T19:37:22;9.02;;;3.42;;
72501;SDS011;60524;49.874;8.652;2022-10-23T19:39:47;11.40;;;2.97;;
72501;SDS011;60524;49.874;8.652;2022-10-23T19:42:12;9.13;;;2.67;;
72501;SDS011;60524;49.874;8.652;2022-10-23T19:44:38;10.32;;;2.53;;
72501;SDS011;60524;49.874;8.652;2022-10-23T19:47:03;9.00;;;2.77;;
72501;SDS011;60524;49.874;8.652;2022-10-23T19:49:29;7.77;;;2.90;;
72501;SDS011;60524;49.874;8.652;2022-10-23T19:51:54;11.57;;;3.23;;
72501;SDS011;60524;49.874;8.652;2022-10-23T19:54:20;8.40;;;2.90;;
72501;SDS011;60524;49.874;8.652;2022-10-23T19:56:45;12.55;;;2.95;;
72501;SDS011;60524;49.874;8.652;2022-10-23T19:59:11;8.57;;;2.65;;
72501;SDS011;60524;49.874;8.652;2022-10-23T20:04:58;5.38;;;2.33;;
72501;SDS011;60524;49.874;8.652;2022-10-23T20:07:24;8.53;;;2.70;;
72501;SDS011;60524;49.874;8.652;2022-10-23T20:09:52;12.18;;;3.40;;
72501;SDS011;60524;49.874;8.652;2022-10-23T20:12:20;27.00;;;8.45;;
72501;SDS011;60524;49.874;8.652;2022-10-23T20:14:47;24.33;;;7.97;;
72501;SDS011;60524;49.874;8.652;2022-10-23T20:17:15;24.52;;;7.63;;
72501;SDS011;60524;49.874;8.652;2022-10-23T20:19:42;13.13;;;4.80;;
72501;SDS011;60524;49.874;8.652;2022-10-23T20:22:12;7.13;;;2.80;;
72501;SDS011;60524;49.874;8.652;2022-10-23T20:24:37;8.30;;;2.73;;
72501;SDS011;60524;49.874;8.652;2022-10-23T20:27:06;7.93;;;2.20;;
72501;SDS011;60524;49.874;8.652;2022-10-23T20:32:01;8.80;;;2.50;;
72501;SDS011;60524;49.874;8.652;2022-10-23T20:34:28;6.72;;;2.55;;
72501;SDS011;60524;49.874;8.652;2022-10-23T20:36:56;6.60;;;2.67;;
72501;SDS011;60524;49.874;8.652;2022-10-23T20:39:29;6.85;;;2.92;;
72501;SDS011;60524;49.874;8.652;2022-10-23T20:42:00;8.35;;;2.83;;
72501;SDS011;60524;49.874;8.652;2022-10-23T20:44:26;7.95;;;3.20;;
72501;SDS011;60524;49.874;8.652;2022-10-23T20:46:52;6.18;;;2.53;;
72501;SDS011;60524;49.874;8.652;2022-10-23T20:49:17;13.38;;;3.53;;
72501;SDS011;60524;49.874;8.652;2022-10-23T20:51:43;9.98;;;2.97;;
72501;SDS011;60524;49.874;8.652;2022-10-23T20:54:09;19.88;;;5.70;;
72501;SDS011;60524;49.874;8.652;2022-10-23T20:56:35;20.83;;;7.47;;
72501;SDS011;60524;49.874;8.652;2022-10-23T20:59:05;21.42;;;7.80;;
72501;SDS011;60524;49.874;8.652;2022-10-23T21:01:37;20.63;;;7.88;;
72501;SDS011;60524;49.874;8.652;2022-10-23T21:04:10;20.65;;;6.75;;
72501;SDS011;60524;49.874;8.652;2022-10-23T21:06:36;21.10;;;5.63;;
72501;SDS011;60524;49.874;8.652;2022-10-23T21:09:03;13.65;;;4.55;;
72501;SDS011;60524;49.874;8.652;2022-10-23T21:11:29;10.13;;;2.97;;
72501;SDS011;60524;49.874;8.652;2022-10-23T21:13:55;9.88;;;2.33;;
72501;SDS011;60524;49.874;8.652;2022-10-23T21:16:22;9.25;;;2.70;;
72501;SDS011;60524;49.874;8.652;2022-10-23T21:18:52;10.75;;;2.97;;
72501;SDS011;60524;49.874;8.652;2022-10-23T21:21:27;10.00;;;2.67;;
72501;SDS011;60524;49.874;8.652;2022-10-23T21:24:04;6.88;;;2.05;;
72501;SDS011;60524;49.874;8.652;2022-10-23T21:26:31;6.78;;;1.85;;
72501;SDS011;60524;49.874;8.652;2022-10-23T21:28:59;5.38;;;1.75;;
72501;SDS011;60524;49.874;8.652;2022-10-23T21:31:27;5.65;;;3.08;;
72501;SDS011;60524;49.874;8.652;2022-10-23T21:33:55;11.75;;;2.42;;
72501;SDS011;60524;49.874;8.652;2022-10-23T21:36:22;8.95;;;2.00;;
72501;SDS011;60524;49.874;8.652;2022-10-23T21:38:51;7.82;;;1.90;;
72501;SDS011;60524;49.874;8.652;2022-10-23T21:41:20;3.95;;;1.42;;
72501;SDS011;60524;49.874;8.652;2022-10-23T21:43:52;7.35;;;2.00;;
72501;SDS011;60524;49.874;8.652;2022-10-23T21:46:22;5.90;;;1.60;;
72501;SDS011;60524;49.874;8.652;2022-10-23T21:48:48;5.57;;;1.98;;
72501;SDS011;60524;49.874;8.652;2022-10-23T21:51:20;6.57;;;2.35;;
72501;SDS011;60524;49.874;8.652;2022-10-23T21:53:47;5.70;;;1.45;;
72501;SDS011;60524;49.874;8.652;2022-10-23T21:58:59;8.85;;;2.47;;
72501;SDS011;60524;49.874;8.652;2022-10-23T22:01:27;5.57;;;1.60;;
72501;SDS011;60524;49.874;8.652;2022-10-23T22:03:53;7.65;;;1.60;;
72501;SDS011;60524;49.874;8.652;2022-10-23T22:06:19;7.30;;;1.63;;
72501;SDS011;60524;49.874;8.652;2022-10-23T22:08:47;8.32;;;1.75;;
72501;SDS011;60524;49.874;8.652;2022-10-23T22:11:13;3.47;;;1.25;;
72501;SDS011;60524;49.874;8.652;2022-10-23T22:13:39;5.20;;;1.23;;
72501;SDS011;60524;49.874;8.652;2022-10-23T22:16:06;9.73;;;2.00;;
72501;SDS011;60524;49.874;8.652;2022-10-23T22:18:32;6.57;;;1.70;;
72501;SDS011;60524;49.874;8.652;2022-10-23T22:21:02;6.55;;;1.65;;
72501;SDS011;60524;49.874;8.652;2022-10-23T22:23:28;8.20;;;1.85;;
72501;SDS011;60524;49.874;8.652;2022-10-23T22:25:54;9.20;;;1.52;;
72501;SDS011;60524;49.874;8.652;2022-10-23T22:28:19;7.68;;;1.55;;
72501;SDS011;60524;49.874;8.652;2022-10-23T22:30:45;7.57;;;1.57;;
72501;SDS011;60524;49.874;8.652;2022-10-23T22:33:10;6.87;;;1.67;;
72501;SDS011;60524;49.874;8.652;2022-10-23T22:35:35;7.20;;;1.63;;
72501;SDS011;60524;49.874;8.652;2022-10-23T22:38:01;8.60;;;1.77;;
72501;SDS011;60524;49.874;8.652;2022-10-23T22:40:26;4.50;;;1.53;;
72501;SDS011;60524;49.874;8.652;2022-10-23T22:42:51;6.07;;;1.53;;
72501;SDS011;60524;49.874;8.652;2022-10-23T22:45:16;6.27;;;1.57;;
72501;SDS011;60524;49.874;8.652;2022-10-23T22:47:42;8.37;;;1.83;;
72501;SDS011;60524;49.874;8.652;2022-10-23T22:50:07;9.57;;;1.87;;
72501;SDS011;60524;49.874;8.652;2022-10-23T22:52:32;12.02;;;1.80;;
72501;SDS011;60524;49.874;8.652;2022-10-23T22:54:58;7.33;;;1.90;;
72501;SDS011;60524;49.874;8.652;2022-10-23T22:57:23;8.40;;;2.03;;
72501;SDS011;60524;49.874;8.652;2022-10-23T22:59:48;7.10;;;2.07;;
72501;SDS011;60524;49.874;8.652;2022-10-23T23:02:14;10.57;;;1.90;;
72501;SDS011;60524;49.874;8.652;2022-10-23T23:04:39;10.30;;;1.80;;
72501;SDS011;60524;49.874;8.652;2022-10-23T23:07:08;12.03;;;1.70;;
72501;SDS011;60524;49.874;8.652;2022-10-23T23:09:35;5.10;;;1.45;;
72501;SDS011;60524;49.874;8.652;2022-10-23T23:12:01;9.85;;;2.05;;
72501;SDS011;60524;49.874;8.652;2022-10-23T23:14:27;11.75;;;1.95;;
72501;SDS011;60524;49.874;8.652;2022-10-23T23:16:52;8.70;;;1.80;;
72501;SDS011;60524;49.874;8.652;2022-10-23T23:19:17;7.93;;;1.50;;
72501;SDS011;60524;49.874;8.652;2022-10-23T23:21:43;10.20;;;1.90;;
72501;SDS011;60524;49.874;8.652;2022-10-23T23:24:09;10.07;;;1.73;;
72501;SDS011;60524;49.874;8.652;2022-10-23T23:26:35;9.50;;;1.80;;
72501;SDS011;60524;49.874;8.652;2022-10-23T23:29:01;9.63;;;1.60;;
72501;SDS011;60524;49.874;8.652;2022-10-23T23:31:26;7.63;;;1.90;;
72501;SDS011;60524;49.874;8.652;2022-10-23T23:33:52;11.38;;;2.90;;
72501;SDS011;60524;49.874;8.652;2022-10-23T23:36:20;11.05;;;2.40;;
72501;SDS011;60524;49.874;8.652;2022-10-23T23:38:50;8.13;;;1.77;;
72501;SDS011;60524;49.874;8.652;2022-10-23T23:41:18;8.70;;;1.80;;
72501;SDS011;60524;49.874;8.652;2022-10-23T23:43:44;7.40;;;2.10;;
72501;SDS011;60524;49.874;8.652;2022-10-23T23:46:09;5.22;;;1.83;;
72501;SDS011;60524;49.874;8.652;2022-10-23T23:48:35;13.18;;;2.03;;
72501;SDS011;60524;49.874;8.652;2022-10-23T23:51:01;7.30;;;1.98;;
72501;SDS011;60524;49.874;8.652;2022-10-23T23:53:26;8.57;;;2.08;;
72501;SDS011;60524;49.874;8.652;2022-10-23T23:55:51;7.23;;;2.07;;
72501;SDS011;60524;49.874;8.652;2022-10-23T23:58:17;7.33;;;1.80;;
